Time;durP1;ratioP1;P1;durP2;ratioP2;P2;SDS_P1;SDS_P2;PMS_P1;PMS_P2;Temp;Humidity;BMP_temperature;BMP_pressure;BME280_temperature;BME280_humidity;BME280_pressure;Samples;Min_cycle;Max_cycle;Signal;HPM_P1;HPM_P2
2023/11/03 00:01:47;;;;;;;4.63;1.57;;;;;;;9.25;100.00;97650.50;7372697;19;20514;-40
2023/11/03 00:04:19;;;;;;;5.33;1.20;;;;;;;9.21;100.00;97650.47;7396234;19;20440;-40
2023/11/03 00:06:49;;;;;;;4.77;1.10;;;;;;;9.19;100.00;97641.06;7372234;19;20433;-39
2023/11/03 00:09:23;;;;;;;4.03;1.30;;;;;;;9.19;100.00;97638.47;7394255;19;20796;-41
2023/11/03 00:11:53;;;;;;;6.37;2.03;;;;;;;9.22;100.00;97640.19;7369638;19;20423;-42
2023/11/03 00:14:24;;;;;;;3.83;1.30;;;;;;;9.16;100.00;97640.19;7395425;19;20433;-38
2023/11/03 00:16:53;;;;;;;6.93;1.60;;;;;;;9.19;100.00;97642.78;7370392;19;20432;-40
2023/11/03 00:19:27;;;;;;;8.40;1.40;;;;;;;9.18;100.00;97638.50;7394480;19;20957;-40
2023/11/03 00:21:57;;;;;;;8.40;1.50;;;;;;;9.19;100.00;97635.06;7365262;19;20446;-42
2023/11/03 00:24:27;;;;;;;5.40;1.10;;;;;;;9.19;100.00;97635.06;7394819;19;20451;-41
2023/11/03 00:26:57;;;;;;;4.43;1.10;;;;;;;9.23;100.00;97625.63;7370705;19;20427;-37
2023/11/03 00:29:27;;;;;;;6.00;1.20;;;;;;;9.17;100.00;97624.78;7394147;19;20471;-41
2023/11/03 00:31:57;;;;;;;7.87;1.17;;;;;;;9.15;100.00;97620.50;7370632;19;20823;-41
2023/11/03 00:34:29;;;;;;;4.80;0.97;;;;;;;9.18;100.00;97617.94;7394964;19;20894;-40
2023/11/03 00:36:59;;;;;;;6.90;0.93;;;;;;;9.19;100.00;97628.19;7370827;19;20431;-41
2023/11/03 00:39:29;;;;;;;4.63;0.97;;;;;;;9.22;100.00;97622.19;7393914;19;20406;-38
2023/11/03 00:41:59;;;;;;;4.27;1.03;;;;;;;9.20;100.00;97626.47;7368757;19;20419;-39
2023/11/03 00:44:28;;;;;;;4.00;1.20;;;;;;;9.18;100.00;97635.94;7394366;19;20806;-39
2023/11/03 00:46:58;;;;;;;4.37;1.73;;;;;;;9.17;100.00;97626.47;7370810;19;20438;-40
2023/11/03 00:49:30;;;;;;;3.80;1.10;;;;;;;9.17;100.00;97626.47;7395184;19;20951;-40
2023/11/03 00:52:00;;;;;;;6.97;2.67;;;;;;;9.19;100.00;97630.75;7370566;19;20451;-39
2023/11/03 00:54:30;;;;;;;5.10;1.20;;;;;;;9.18;100.00;97629.06;7394524;19;20527;-39
2023/11/03 00:57:00;;;;;;;3.40;1.00;;;;;;;9.14;100.00;97629.06;7369842;19;20440;-39
2023/11/03 00:59:30;;;;;;;4.87;1.00;;;;;;;9.10;100.00;97629.94;7392600;19;20423;-40
2023/11/03 01:02:00;;;;;;;5.90;1.00;;;;;;;9.10;100.00;97624.78;7370458;19;20506;-40
2023/11/03 01:04:32;;;;;;;3.00;0.90;;;;;;;9.12;100.00;97635.94;7393793;19;20478;-40
2023/11/03 01:07:02;;;;;;;4.60;1.30;;;;;;;9.11;100.00;97636.78;7367581;19;20448;-39
2023/11/03 01:09:32;;;;;;;9.40;1.50;;;;;;;9.10;100.00;97635.94;7394390;19;20431;-40
2023/11/03 01:12:02;;;;;;;4.80;1.10;;;;;;;9.05;100.00;97628.25;7368894;19;20462;-40
2023/11/03 01:14:32;;;;;;;5.33;1.40;;;;;;;9.04;100.00;97623.94;7391120;19;21087;-40
2023/11/03 01:17:05;;;;;;;3.70;1.40;;;;;;;9.04;100.00;97631.66;7365952;19;20506;-41
2023/11/03 01:19:38;;;;;;;5.00;1.00;;;;;;;9.03;100.00;97624.81;7392479;19;20427;-40
2023/11/03 01:22:08;;;;;;;9.50;1.80;;;;;;;9.05;100.00;97628.25;7370281;19;20446;-39
2023/11/03 01:24:39;;;;;;;2.97;1.10;;;;;;;9.03;100.00;97624.81;7393867;19;20475;-38
2023/11/03 01:27:09;;;;;;;4.40;0.90;;;;;;;9.01;100.00;97635.94;7370997;19;20430;-42
2023/11/03 01:29:38;;;;;;;4.37;0.90;;;;;;;8.97;100.00;97634.25;7392022;19;20970;-41
2023/11/03 01:32:09;;;;;;;3.37;0.90;;;;;;;8.93;100.00;97623.13;7370153;19;20439;-39
2023/11/03 01:34:42;;;;;;;4.47;1.43;;;;;;;8.91;100.00;97635.97;7391643;19;20439;-39
2023/11/03 01:37:11;;;;;;;4.27;1.30;;;;;;;8.96;100.00;97620.53;7371545;19;20446;-40
2023/11/03 01:39:42;;;;;;;5.20;0.97;;;;;;;8.94;100.00;97634.25;7368985;19;20416;-40
2023/11/03 01:42:12;;;;;;;7.40;1.73;;;;;;;8.87;100.00;97629.13;7392241;19;20787;-40
2023/11/03 01:44:41;;;;;;;11.43;1.20;;;;;;;8.87;100.00;97630.84;7369668;19;20440;-39
2023/11/03 01:47:14;;;;;;;7.60;1.30;;;;;;;8.87;100.00;97631.69;7390222;19;20690;-39
2023/11/03 01:49:47;;;;;;;7.10;1.13;;;;;;;8.81;100.00;97625.72;7371462;19;20408;-39
2023/11/03 01:52:17;;;;;;;3.60;0.90;;;;;;;8.77;100.00;97630.00;7390458;19;20870;-39
2023/11/03 01:54:46;;;;;;;8.37;3.10;;;;;;;8.73;100.00;97626.56;7374046;19;20455;-39
2023/11/03 01:57:16;;;;;;;6.50;1.20;;;;;;;8.70;100.00;97633.41;7399669;19;20781;-41
2023/11/03 01:59:46;;;;;;;8.50;1.10;;;;;;;8.70;100.00;97636.84;7373963;19;20475;-39
2023/11/03 02:02:16;;;;;;;2.60;1.03;;;;;;;8.64;100.00;97631.72;7396444;19;20499;-40
2023/11/03 02:04:48;;;;;;;7.03;1.13;;;;;;;8.63;100.00;97614.59;7375644;19;20488;-39
2023/11/03 02:07:18;;;;;;;6.00;1.23;;;;;;;8.57;100.00;97622.31;7396786;19;20411;-40
2023/11/03 02:09:47;;;;;;;8.70;1.50;;;;;;;8.55;100.00;97611.19;7373321;19;20428;-38
2023/11/03 02:12:17;;;;;;;5.30;0.90;;;;;;;8.55;100.00;97604.31;7396364;19;20950;-39
2023/11/03 02:14:49;;;;;;;2.83;0.80;;;;;;;8.51;100.00;97606.03;7375327;19;20860;-39
2023/11/03 02:17:18;;;;;;;4.07;0.90;;;;;;;8.49;100.00;97611.97;7390193;19;21244;-41
2023/11/03 02:19:52;;;;;;;3.77;0.90;;;;;;;8.47;100.00;97608.56;7374078;19;20408;-39
2023/11/03 02:22:21;;;;;;;2.10;0.90;;;;;;;8.47;100.00;97611.97;7395851;19;20407;-39
2023/11/03 02:24:53;;;;;;;6.03;1.40;;;;;;;8.45;100.00;97616.25;7370687;19;20431;-39
2023/11/03 02:27:23;;;;;;;6.30;1.00;;;;;;;8.47;100.00;97619.69;7396706;19;20997;-39
2023/11/03 02:29:56;;;;;;;5.63;1.80;;;;;;;8.41;100.00;97614.53;7373345;19;20403;-40
2023/11/03 02:32:26;;;;;;;6.93;1.13;;;;;;;8.40;100.00;97623.09;7396371;19;20483;-40
2023/11/03 02:34:56;;;;;;;5.13;1.30;;;;;;;8.35;100.00;97617.97;7373014;19;20825;-38
2023/11/03 02:37:25;;;;;;;5.20;1.07;;;;;;;8.30;100.00;97616.28;7393586;19;20404;-39
2023/11/03 02:39:57;;;;;;;5.80;1.00;;;;;;;8.24;100.00;97612.84;7372752;19;21031;-41
2023/11/03 02:42:27;;;;;;;4.17;1.10;;;;;;;8.28;100.00;97615.41;7395333;19;20431;-39
2023/11/03 02:44:58;;;;;;;8.53;1.27;;;;;;;8.24;100.00;97617.09;7373510;19;20804;-41
2023/11/03 02:47:27;;;;;;;7.53;1.00;;;;;;;8.26;100.00;97614.56;7395919;19;20403;-40
2023/11/03 02:49:58;;;;;;;3.90;1.00;;;;;;;8.21;100.00;97619.69;7372597;19;20403;-39
2023/11/03 02:52:29;;;;;;;5.27;1.10;;;;;;;8.20;100.00;97613.69;7395559;19;20768;-40
2023/11/03 02:55:01;;;;;;;4.80;1.23;;;;;;;8.16;100.00;97613.69;7373236;19;20396;-39
2023/11/03 02:57:31;;;;;;;3.13;0.77;;;;;;;8.11;100.00;97624.78;7398151;19;20404;-40
2023/11/03 03:00:01;;;;;;;5.57;1.37;;;;;;;8.15;100.00;97622.25;7372495;19;20943;-39
2023/11/03 03:02:30;;;;;;;4.57;1.40;;;;;;;8.11;100.00;97626.53;7397417;19;20408;-40
2023/11/03 03:05:00;;;;;;;6.97;1.30;;;;;;;8.07;100.00;97611.97;7371486;19;20420;-39
2023/11/03 03:07:30;;;;;;;5.60;1.30;;;;;;;8.06;100.00;97617.94;7396878;19;20400;-40
2023/11/03 03:10:03;;;;;;;3.40;0.73;;;;;;;8.01;100.00;97620.53;7370190;19;21071;-40
2023/11/03 03:12:33;;;;;;;4.63;1.00;;;;;;;8.01;100.00;97615.38;7396823;19;20982;-41
2023/11/03 03:15:03;;;;;;;5.73;1.20;;;;;;;8.02;100.00;97617.09;7372039;19;20518;-39
2023/11/03 03:17:33;;;;;;;3.93;1.00;;;;;;;8.04;100.00;97630.78;7395000;19;21107;-39
2023/11/03 03:20:03;;;;;;;1.90;0.60;;;;;;;8.04;100.00;97641.06;7373835;19;20498;-41
2023/11/03 03:22:32;;;;;;;10.33;1.30;;;;;;;8.14;100.00;97635.94;7394924;19;20424;-39
2023/11/03 03:25:05;;;;;;;4.87;1.17;;;;;;;8.08;100.00;97637.66;7372369;19;20471;-38
2023/11/03 03:27:35;;;;;;;5.00;1.40;;;;;;;8.10;100.00;97628.22;7395221;19;20419;-40
2023/11/03 03:30:05;;;;;;;7.87;1.20;;;;;;;8.15;100.00;97623.09;7373568;19;20414;-42
2023/11/03 03:32:35;;;;;;;4.37;1.03;;;;;;;8.18;100.00;97623.09;7395650;19;20838;-41
2023/11/03 03:35:05;;;;;;;9.97;1.40;;;;;;;8.16;100.00;97629.94;7371435;19;20395;-37
2023/11/03 03:37:34;;;;;;;10.80;1.63;;;;;;;8.19;100.00;97626.50;7393813;19;20412;-39
2023/11/03 03:40:08;;;;;;;4.87;1.40;;;;;;;8.16;100.00;97629.94;7374124;19;20438;-37
2023/11/03 03:42:38;;;;;;;1.93;0.63;;;;;;;8.15;100.00;97624.81;7395087;19;20408;-40
2023/11/03 03:45:09;;;;;;;2.30;0.90;;;;;;;8.21;100.00;97633.38;7371558;19;20403;-38
2023/11/03 03:47:39;;;;;;;4.17;1.20;;;;;;;8.20;100.00;97641.09;7394454;19;20411;-39
2023/11/03 03:50:10;;;;;;;2.87;1.10;;;;;;;8.19;100.00;97635.09;7373160;19;20431;-41
2023/11/03 03:52:40;;;;;;;4.33;1.27;;;;;;;8.14;100.00;97634.22;7394723;19;20404;-40
2023/11/03 03:55:12;;;;;;;3.60;1.10;;;;;;;8.20;100.00;97633.38;7371542;19;20411;-42
2023/11/03 03:57:42;;;;;;;8.83;1.17;;;;;;;8.21;100.00;97638.50;7394078;19;20396;-39
2023/11/03 04:00:12;;;;;;;5.10;0.83;;;;;;;8.22;100.00;97634.25;7372642;19;20962;-40
2023/11/03 04:02:42;;;;;;;5.70;1.20;;;;;;;8.21;100.00;97642.81;7396393;19;20414;-39
2023/11/03 04:05:12;;;;;;;5.13;0.90;;;;;;;8.19;100.00;97649.63;7371037;19;20395;-40
2023/11/03 04:07:42;;;;;;;5.50;1.20;;;;;;;8.19;100.00;97637.66;7394098;19;20404;-39
2023/11/03 04:10:14;;;;;;;4.07;1.30;;;;;;;8.17;100.00;97635.94;7369625;19;20403;-39
2023/11/03 04:12:43;;;;;;;7.17;1.03;;;;;;;8.14;100.00;97641.09;7394500;19;20422;-38
2023/11/03 04:15:13;;;;;;;4.50;1.10;;;;;;;8.08;100.00;97631.63;7371342;19;20399;-42
2023/11/03 04:17:42;;;;;;;10.70;2.00;;;;;;;8.06;100.00;97628.22;7394901;19;20417;-40
2023/11/03 04:20:13;;;;;;;4.10;0.93;;;;;;;8.06;100.00;97633.34;7370612;19;20470;-38
2023/11/03 04:22:43;;;;;;;7.53;1.60;;;;;;;8.06;100.00;97634.19;7393782;19;20417;-40
2023/11/03 04:25:16;;;;;;;4.10;1.10;;;;;;;8.07;100.00;97635.06;7371141;19;20514;-39
2023/11/03 04:27:45;;;;;;;2.73;1.03;;;;;;;8.04;100.00;97623.06;7395058;19;20440;-39
2023/11/03 04:30:15;;;;;;;4.50;1.33;;;;;;;8.00;100.00;97629.06;7369794;19;20408;-37
2023/11/03 04:32:45;;;;;;;4.87;1.00;;;;;;;8.04;100.00;97623.06;7392629;19;20396;-40
2023/11/03 04:35:14;;;;;;;4.47;1.27;;;;;;;8.04;100.00;97622.22;7370298;19;20423;-40
2023/11/03 04:37:44;;;;;;;5.20;1.10;;;;;;;8.03;100.00;97616.25;7393314;19;20429;-38
2023/11/03 04:40:19;;;;;;;4.70;1.30;;;;;;;8.02;100.00;97623.94;7370886;19;20478;-40
2023/11/03 04:42:48;;;;;;;4.20;1.00;;;;;;;8.02;100.00;97624.78;7393660;19;20403;-39
2023/11/03 04:45:18;;;;;;;6.33;1.13;;;;;;;8.03;100.00;97618.81;7369843;19;20482;-38
2023/11/03 04:47:48;;;;;;;1.80;0.70;;;;;;;8.01;100.00;97615.38;7394148;19;20407;-37
2023/11/03 04:50:18;;;;;;;2.60;0.80;;;;;;;7.96;100.00;97610.22;7371671;19;20759;-41
2023/11/03 04:52:48;;;;;;;5.10;1.30;;;;;;;7.93;100.00;97623.06;7395374;19;20399;-39
2023/11/03 04:55:20;;;;;;;6.43;1.30;;;;;;;8.00;100.00;97607.66;7370082;19;20403;-40
2023/11/03 04:57:53;;;;;;;4.97;1.10;;;;;;;7.93;100.00;97610.22;7394231;19;20411;-38
2023/11/03 05:00:23;;;;;;;4.50;1.10;;;;;;;7.92;100.00;97623.06;7370127;19;20399;-38
2023/11/03 05:02:52;;;;;;;4.00;1.07;;;;;;;7.87;100.00;97633.31;7392844;19;20853;-40
2023/11/03 05:05:22;;;;;;;7.00;2.00;;;;;;;7.89;100.00;97633.34;7369515;19;20422;-39
2023/11/03 05:07:52;;;;;;;5.83;0.90;;;;;;;7.87;100.00;97646.16;7394173;19;20478;-44
2023/11/03 05:10:24;;;;;;;6.20;1.20;;;;;;;7.84;100.00;97658.97;7367211;19;20835;-38
2023/11/03 05:12:54;;;;;;;7.33;1.67;;;;;;;7.84;100.00;97661.53;7392406;19;20403;-38
2023/11/03 05:15:23;;;;;;;5.20;1.40;;;;;;;7.86;100.00;97664.09;7369832;19;20450;-39
2023/11/03 05:17:53;;;;;;;3.57;0.87;;;;;;;7.87;100.00;97669.25;7391821;19;20417;-41
2023/11/03 05:20:23;;;;;;;9.87;1.57;;;;;;;7.93;100.00;97656.44;7369053;19;20399;-40
2023/11/03 05:22:52;;;;;;;7.20;1.43;;;;;;;7.99;100.00;97667.59;7394215;19;20403;-40
2023/11/03 05:25:25;;;;;;;4.63;1.33;;;;;;;7.97;100.00;97660.75;7369362;19;20891;-38
2023/11/03 05:27:54;;;;;;;5.77;1.30;;;;;;;8.01;100.00;97665.88;7389926;19;20789;-38
2023/11/03 05:30:25;;;;;;;11.40;1.00;;;;;;;8.02;100.00;97665.00;7374848;19;20497;-40
2023/11/03 05:32:55;;;;;;;5.77;1.33;;;;;;;8.02;100.00;97668.44;7397298;19;20414;-41
2023/11/03 05:35:25;;;;;;;5.87;1.03;;;;;;;8.02;100.00;97667.56;7375096;19;20986;-39
2023/11/03 05:37:54;;;;;;;7.47;1.50;;;;;;;8.07;100.00;97668.44;7396105;19;20410;-41
2023/11/03 05:40:27;;;;;;;6.23;1.20;;;;;;;8.03;100.00;97667.59;7374763;19;20842;-43
2023/11/03 05:42:57;;;;;;;5.30;1.17;;;;;;;8.03;100.00;97659.00;7397159;19;20411;-39
2023/11/03 05:45:26;;;;;;;10.10;1.57;;;;;;;7.98;100.00;97661.56;7376358;19;20430;-38
2023/11/03 05:47:56;;;;;;;7.30;2.40;;;;;;;8.01;100.00;97660.72;7395890;19;20404;-39
2023/11/03 05:50:30;;;;;;;5.03;1.37;;;;;;;7.97;100.00;97658.16;7374695;19;21059;-39
2023/11/03 05:53:00;;;;;;;6.80;1.30;;;;;;;7.93;100.00;97651.31;7399657;19;20403;-50
2023/11/03 05:55:32;;;;;;;6.10;1.13;;;;;;;7.93;100.00;97659.00;7374898;19;20398;-42
2023/11/03 05:58:02;;;;;;;10.57;1.50;;;;;;;7.93;100.00;97659.00;7396311;19;20415;-39
2023/11/03 06:00:32;;;;;;;4.20;1.10;;;;;;;7.92;100.00;97661.56;7373995;19;20820;-39
2023/11/03 06:03:02;;;;;;;7.83;1.37;;;;;;;7.90;100.00;97656.41;7399313;19;20487;-39
2023/11/03 06:05:33;;;;;;;6.70;0.90;;;;;;;7.87;100.00;97664.13;7376721;19;20391;-40
2023/11/03 06:08:03;;;;;;;3.50;1.20;;;;;;;7.88;100.00;97655.56;7395572;19;20412;-39
2023/11/03 06:10:35;;;;;;;11.30;1.93;;;;;;;7.90;100.00;97653.00;7374286;19;20483;-38
2023/11/03 06:13:05;;;;;;;10.17;1.30;;;;;;;7.87;100.00;97659.00;7398872;19;20971;-39
2023/11/03 06:15:34;;;;;;;3.20;0.93;;;;;;;7.82;100.00;97661.53;7374598;19;20403;-41
2023/11/03 06:18:04;;;;;;;4.80;1.40;;;;;;;7.83;100.00;97662.38;7394925;19;20490;-39
2023/11/03 06:20:34;;;;;;;7.33;1.33;;;;;;;7.82;100.00;97660.69;7373800;19;20411;-38
2023/11/03 06:23:04;;;;;;;3.53;0.90;;;;;;;7.83;100.00;97677.78;7396151;19;21212;-39
2023/11/03 06:25:36;;;;;;;3.67;0.80;;;;;;;7.81;100.00;97682.06;7375360;19;20422;-38
2023/11/03 06:28:09;;;;;;;5.43;1.03;;;;;;;7.83;100.00;97688.06;7395558;19;20407;-38
2023/11/03 06:30:39;;;;;;;9.83;1.50;;;;;;;7.89;100.00;97693.22;7373667;19;20407;-39
2023/11/03 06:33:09;;;;;;;3.93;0.90;;;;;;;8.00;100.00;97700.09;7390746;19;20496;-40
2023/11/03 06:35:38;;;;;;;12.07;1.27;;;;;;;8.08;100.00;97693.28;7373939;19;20484;-41
2023/11/03 06:38:08;;;;;;;3.63;0.77;;;;;;;8.09;100.00;97700.13;7394033;19;20412;-38
2023/11/03 06:40:40;;;;;;;6.03;1.83;;;;;;;8.11;100.00;97704.41;7371213;19;20444;-39
2023/11/03 06:43:10;;;;;;;4.50;1.17;;;;;;;8.12;100.00;97710.41;7395716;19;20410;-39
2023/11/03 06:45:39;;;;;;;10.60;3.03;;;;;;;8.15;100.00;97709.56;7373569;19;20423;-41
2023/11/03 06:48:09;;;;;;;8.97;2.83;;;;;;;8.16;100.00;97722.38;7396633;19;20418;-42
2023/11/03 06:50:39;;;;;;;12.23;2.30;;;;;;;8.18;100.00;97725.84;7373987;19;20431;-40
2023/11/03 06:53:11;;;;;;;4.80;1.23;;;;;;;8.15;100.00;97725.81;7395768;19;20790;-39
2023/11/03 06:55:44;;;;;;;7.33;1.87;;;;;;;8.12;100.00;97720.69;7373474;19;20400;-41
2023/11/03 06:58:13;;;;;;;11.20;2.13;;;;;;;8.15;100.00;97728.38;7391683;19;20416;-40
2023/11/03 07:00:46;;;;;;;8.37;1.70;;;;;;;8.12;100.00;97725.81;7372061;19;20443;-42
2023/11/03 07:03:16;;;;;;;11.67;2.07;;;;;;;8.06;100.00;97736.91;7392815;19;20403;-40
2023/11/03 07:05:46;;;;;;;13.20;1.53;;;;;;;8.07;100.00;97733.50;7372615;19;21042;-40
2023/11/03 07:08:16;;;;;;;5.87;2.47;;;;;;;8.07;100.00;97742.91;7392090;19;20434;-40
2023/11/03 07:10:48;;;;;;;7.97;2.93;;;;;;;8.09;100.00;97747.22;7371023;19;20451;-39
2023/11/03 07:13:18;;;;;;;8.00;1.43;;;;;;;8.10;100.00;97746.34;7395561;19;20427;-41
2023/11/03 07:15:47;;;;;;;6.90;1.37;;;;;;;8.11;100.00;97754.94;7371906;19;20969;-41
2023/11/03 07:18:17;;;;;;;5.57;1.30;;;;;;;8.15;100.00;97750.66;7397851;19;21228;-41
2023/11/03 07:20:47;;;;;;;7.30;2.13;;;;;;;8.18;100.00;97756.66;7373894;19;20414;-42
2023/11/03 07:23:17;;;;;;;7.70;1.70;;;;;;;8.21;100.00;97756.66;7395416;19;20404;-48
2023/11/03 07:25:50;;;;;;;3.97;1.20;;;;;;;8.23;100.00;97770.38;7372476;19;20403;-41
2023/11/03 07:28:20;;;;;;;5.07;1.10;;;;;;;8.22;100.00;97776.34;7388559;19;20415;-44
2023/11/03 07:30:50;;;;;;;8.07;2.20;;;;;;;8.23;100.00;97774.66;7371147;19;20430;-43
2023/11/03 07:33:21;;;;;;;4.83;1.40;;;;;;;8.29;100.00;97784.06;7393985;19;20415;-40
2023/11/03 07:35:52;;;;;;;11.00;1.70;;;;;;;8.27;100.00;97781.53;7371613;19;20963;-41
2023/11/03 07:38:22;;;;;;;6.43;1.43;;;;;;;8.29;100.00;97778.94;7394487;19;20403;-41
2023/11/03 07:40:54;;;;;;;3.70;1.33;;;;;;;8.30;100.00;97785.81;7372802;19;20419;-40
2023/11/03 07:43:24;;;;;;;9.43;1.67;;;;;;;8.33;100.00;97780.66;7393875;19;20403;-41
2023/11/03 07:45:54;;;;;;;6.03;1.27;;;;;;;8.39;100.00;97775.56;7371790;19;20487;-40
2023/11/03 07:48:23;;;;;;;5.57;1.63;;;;;;;8.41;100.00;97773.84;7393994;19;20403;-40
2023/11/03 07:50:54;;;;;;;6.67;1.27;;;;;;;8.36;100.00;97775.56;7372648;19;20423;-40
2023/11/03 07:53:23;;;;;;;5.60;1.20;;;;;;;8.37;100.00;97777.28;7392408;19;20813;-38
2023/11/03 07:55:56;;;;;;;6.77;1.40;;;;;;;8.39;100.00;97770.41;7366282;19;20499;-39
2023/11/03 07:58:26;;;;;;;6.40;1.10;;;;;;;8.42;100.00;97765.28;7393304;19;20420;-39
2023/11/03 08:00:57;;;;;;;4.37;1.30;;;;;;;8.41;100.00;97773.84;7361810;19;20419;-41
2023/11/03 08:03:28;;;;;;;10.37;1.47;;;;;;;8.44;100.00;97775.56;7394384;19;20451;-40
2023/11/03 08:05:58;;;;;;;9.53;1.40;;;;;;;8.47;100.00;97771.28;7369834;19;20443;-41
2023/11/03 08:08:29;;;;;;;9.53;1.83;;;;;;;8.48;100.00;97774.72;7393859;19;20395;-40
2023/11/03 08:11:03;;;;;;;6.30;1.20;;;;;;;8.56;100.00;97757.63;7367484;19;20415;-40
2023/11/03 08:13:32;;;;;;;3.20;1.00;;;;;;;8.51;100.00;97785.91;7393659;19;20773;-39
2023/11/03 08:16:03;;;;;;;5.90;1.40;;;;;;;8.53;100.00;97780.75;7369889;19;20423;-39
2023/11/03 08:18:34;;;;;;;4.80;1.27;;;;;;;8.48;100.00;97780.72;7393361;19;20415;-41
2023/11/03 08:21:04;;;;;;;4.33;1.57;;;;;;;8.53;100.00;97777.31;7371406;19;20458;-38
2023/11/03 08:23:35;;;;;;;7.03;1.70;;;;;;;8.60;100.00;97779.06;7394024;19;20783;-38
2023/11/03 08:26:09;;;;;;;8.10;1.87;;;;;;;8.56;100.00;97777.34;7368771;19;20422;-39
2023/11/03 08:28:39;;;;;;;4.23;1.43;;;;;;;8.59;100.00;97787.63;7393439;19;20402;-42
2023/11/03 08:31:11;;;;;;;5.17;1.30;;;;;;;8.55;100.00;97791.06;7369937;19;20450;-43
2023/11/03 08:33:40;;;;;;;6.10;1.90;;;;;;;8.56;100.00;97790.19;7394941;19;20971;-39
2023/11/03 08:36:11;;;;;;;8.93;1.50;;;;;;;8.56;100.00;97787.63;7364425;19;20419;-39
2023/11/03 08:38:41;;;;;;;3.70;1.17;;;;;;;8.59;100.00;97798.78;7393635;19;20400;-40
2023/11/03 08:41:13;;;;;;;6.10;1.00;;;;;;;8.57;100.00;97799.63;7368350;19;20434;-41
2023/11/03 08:43:45;;;;;;;4.57;1.20;;;;;;;8.51;100.00;97810.69;7393783;19;20460;-44
2023/11/03 08:46:15;;;;;;;9.00;1.20;;;;;;;8.55;100.00;97807.31;7370089;19;20419;-44
2023/11/03 08:48:45;;;;;;;5.13;1.17;;;;;;;8.54;100.00;97817.59;7393635;19;20395;-40
2023/11/03 08:51:16;;;;;;;6.60;1.33;;;;;;;8.54;100.00;97820.16;7369846;19;20423;-40
2023/11/03 08:53:46;;;;;;;4.20;1.30;;;;;;;8.54;100.00;97821.03;7394973;19;20447;-40
2023/11/03 08:56:20;;;;;;;6.40;1.50;;;;;;;8.49;100.00;97823.56;7370104;19;20442;-38
2023/11/03 08:58:50;;;;;;;7.00;1.83;;;;;;;8.44;100.00;97817.53;7395036;19;20791;-40
2023/11/03 09:01:19;;;;;;;9.40;1.80;;;;;;;8.49;100.00;97820.13;7369468;19;20427;-40
2023/11/03 09:03:50;;;;;;;9.37;1.47;;;;;;;8.46;100.00;97826.09;7394920;19;20858;-38
2023/11/03 09:06:20;;;;;;;5.83;1.40;;;;;;;8.46;100.00;97838.94;7376217;19;20423;-38
2023/11/03 09:08:50;;;;;;;6.30;1.40;;;;;;;8.42;100.00;97832.09;7399100;19;20430;-38
2023/11/03 09:11:22;;;;;;;5.47;1.40;;;;;;;8.46;100.00;97838.09;7373859;19;20510;-38
2023/11/03 09:13:55;;;;;;;4.50;1.13;;;;;;;8.39;100.00;97847.50;7399944;19;20522;-41
2023/11/03 09:16:25;;;;;;;10.60;1.53;;;;;;;8.39;100.00;97862.91;7376483;19;20520;-40
2023/11/03 09:18:57;;;;;;;9.40;1.87;;;;;;;8.43;100.00;97856.94;7399296;19;20411;-39
2023/11/03 09:21:26;;;;;;;5.10;1.57;;;;;;;8.42;100.00;97854.34;7375938;19;20423;-39
2023/11/03 09:23:56;;;;;;;14.47;1.70;;;;;;;8.41;100.00;97868.91;7397977;19;20519;-42
2023/11/03 09:26:29;;;;;;;4.00;0.90;;;;;;;8.42;100.00;97862.06;7375611;19;20432;-42
2023/11/03 09:29:00;;;;;;;3.90;1.10;;;;;;;8.46;100.00;97863.81;7397202;19;20797;-38
2023/11/03 09:31:32;;;;;;;4.50;1.50;;;;;;;8.48;100.00;97869.78;7373976;19;20411;-40
2023/11/03 09:34:02;;;;;;;4.63;1.03;;;;;;;8.47;100.00;97866.34;7396492;19;20487;-39
2023/11/03 09:36:32;;;;;;;3.50;1.00;;;;;;;8.53;100.00;97864.69;7373999;19;20406;-39
2023/11/03 09:39:04;;;;;;;8.33;1.37;;;;;;;8.54;100.00;97864.72;7394376;19;20391;-41
2023/11/03 09:41:41;;;;;;;6.30;1.10;;;;;;;8.56;100.00;97862.16;7373974;19;20857;-40
2023/11/03 09:44:11;;;;;;;4.47;1.23;;;;;;;8.57;100.00;97862.13;7394859;19;20427;-40
2023/11/03 09:46:41;;;;;;;1.97;0.90;;;;;;;8.57;100.00;97874.16;7372848;19;20470;-41
2023/11/03 09:49:11;;;;;;;2.23;0.83;;;;;;;8.58;100.00;97868.16;7398503;19;20411;-39
2023/11/03 09:51:44;;;;;;;4.03;0.83;;;;;;;8.60;100.00;97872.44;7377236;19;20450;-42
2023/11/03 09:54:14;;;;;;;3.27;1.07;;;;;;;8.59;100.00;97886.16;7394896;19;20854;-39
2023/11/03 09:56:47;;;;;;;9.23;1.50;;;;;;;8.59;100.00;97885.28;7373324;19;20445;-44
2023/11/03 09:59:17;;;;;;;3.90;1.20;;;;;;;8.57;100.00;97887.00;7393616;19;21196;-39
2023/11/03 10:01:47;;;;;;;3.63;0.83;;;;;;;8.56;100.00;97900.69;7373655;19;20394;-39
2023/11/03 10:04:17;;;;;;;4.90;1.20;;;;;;;8.57;100.00;97902.41;7394158;19;20467;-37
2023/11/03 10:06:47;;;;;;;5.53;1.30;;;;;;;8.58;100.00;97893.84;7372726;19;20403;-41
2023/11/03 10:09:17;;;;;;;3.87;0.93;;;;;;;8.60;100.00;97892.13;7396396;19;20423;-38
2023/11/03 10:11:49;;;;;;;10.80;0.90;;;;;;;8.59;100.00;97885.28;7370812;19;20418;-38
2023/11/03 10:14:19;;;;;;;7.40;1.50;;;;;;;8.58;100.00;97883.56;7392790;19;20416;-43
2023/11/03 10:16:50;;;;;;;3.30;1.37;;;;;;;8.55;100.00;97886.13;7372220;19;20411;-39
2023/11/03 10:19:20;;;;;;;3.23;1.03;;;;;;;8.60;100.00;97887.00;7396647;19;20399;-41
2023/11/03 10:21:50;;;;;;;6.40;1.40;;;;;;;8.56;100.00;97882.72;7372192;19;20403;-39
2023/11/03 10:24:20;;;;;;;4.27;1.23;;;;;;;8.55;100.00;97878.44;7393172;19;20428;-38
2023/11/03 10:26:53;;;;;;;3.20;1.50;;;;;;;8.66;100.00;97868.19;7372477;19;20430;-40
2023/11/03 10:29:23;;;;;;;4.97;1.97;;;;;;;8.75;100.00;97865.63;7398509;19;20455;-40
2023/11/03 10:31:52;;;;;;;7.93;0.90;;;;;;;8.75;100.00;97861.34;7371822;19;20403;-41
2023/11/03 10:34:22;;;;;;;7.13;1.17;;;;;;;8.86;100.00;97863.06;7394841;19;20427;-42
2023/11/03 10:36:56;;;;;;;5.73;1.03;;;;;;;8.82;100.00;97871.66;7371804;19;20395;-40
2023/11/03 10:39:27;;;;;;;4.00;1.20;;;;;;;8.90;100.00;97865.69;7395091;19;20395;-40
2023/11/03 10:42:02;;;;;;;4.53;1.17;;;;;;;8.99;100.00;97885.41;7370932;19;20472;-41
2023/11/03 10:44:33;;;;;;;3.30;1.00;;;;;;;9.09;100.00;97891.44;7397558;19;20854;-39
2023/11/03 10:47:06;;;;;;;2.37;0.87;;;;;;;9.18;100.00;97873.44;7371528;19;20395;-40
2023/11/03 10:49:40;;;;;;;4.03;1.20;;;;;;;9.54;100.00;97873.44;7395006;19;20376;-42
2023/11/03 10:52:16;;;;;;;3.53;1.10;;;;;;;9.39;100.00;97878.59;7372558;19;20495;-41
2023/11/03 10:54:56;;;;;;;2.70;1.30;;;;;;;9.31;100.00;97884.59;7371285;19;20433;-40
2023/11/03 10:57:30;;;;;;;4.10;1.37;;;;;;;9.28;100.00;97887.16;7391811;19;20404;-40
2023/11/03 11:00:17;;;;;;;7.47;1.60;;;;;;;9.22;100.00;97894.88;7371017;19;20403;-42
2023/11/03 11:02:54;;;;;;;3.53;1.20;;;;;;;9.21;100.00;97888.00;7391727;19;20455;-38
2023/11/03 11:05:27;;;;;;;10.40;1.20;;;;;;;9.21;100.00;97885.44;7370488;19;20399;-43
2023/11/03 11:08:00;;;;;;;3.10;1.57;;;;;;;9.37;100.00;97885.44;7391154;19;20394;-39
2023/11/03 11:10:37;;;;;;;2.70;1.27;;;;;;;9.52;100.00;97890.63;7368807;19;20399;-39
2023/11/03 11:13:17;;;;;;;3.70;1.70;;;;;;;9.48;100.00;97904.31;7395791;19;20418;-39
2023/11/03 11:16:05;;;;;;;5.00;1.63;;;;;;;9.53;100.00;97912.06;7370628;19;20403;-42
2023/11/03 11:18:36;;;;;;;6.53;1.67;;;;;;;9.40;100.00;97916.34;7393975;19;20380;-39
2023/11/03 11:21:08;;;;;;;4.53;1.30;;;;;;;9.28;100.00;97933.47;7369786;19;20395;-41
2023/11/03 11:23:43;;;;;;;2.50;1.10;;;;;;;9.13;100.00;97934.28;7393085;19;21364;-39
2023/11/03 11:26:18;;;;;;;8.13;1.87;;;;;;;9.15;100.00;97940.31;7368462;19;20417;-41
2023/11/03 11:29:06;;;;;;;7.83;1.67;;;;;;;9.27;100.00;97947.19;7391419;19;20399;-39
2023/11/03 11:31:41;;;;;;;6.23;1.90;;;;;;;9.24;100.00;97949.78;7369857;19;20396;-40
2023/11/03 11:34:15;;;;;;;5.17;2.17;;;;;;;9.31;100.00;97946.34;7392121;19;20431;-40
2023/11/03 11:36:47;;;;;;;5.23;1.93;;;;;;;9.46;100.00;97952.38;7369166;19;20418;-41
2023/11/03 11:39:19;;;;;;;11.40;1.70;;;;;;;9.34;100.00;97958.38;7391057;19;20392;-40
2023/11/03 11:41:53;;;;;;;4.27;1.17;;;;;;;9.32;100.00;97955.78;7369684;19;20403;-39
2023/11/03 11:44:27;;;;;;;3.50;1.80;;;;;;;9.35;100.00;97959.22;7394829;19;20435;-40
2023/11/03 11:46:59;;;;;;;4.93;2.17;;;;;;;9.40;100.00;97962.66;7370343;19;20450;-40
2023/11/03 11:49:31;;;;;;;3.50;2.10;;;;;;;9.40;100.00;97965.22;7391050;19;20475;-42